Terminal Aerodrome Forecast
Issued by NWS

Home | Current Version | Previous Version | Text Only | Print | Product List | Glossary On
Versions: 1 2 3 4 5 6 7 8 9 10 11 12 13 14
000
FTUS46 KHNX 041124
TAFBFL
TAF
KBFL 041124Z 0412/0512 33003KT P6SM FEW150 SCT200
     FM042100 30011G19KT P6SM SCT200
     FM050200 35007KT P6SM SCT200
     FM050600 VRB04KT P6SM SCT200=

USA.gov is the U.S. government's official web portal to all federal, state and local government web resources and services.